Time;durP1;ratioP1;P1;durP2;ratioP2;P2;SDS_P1;SDS_P2;PMS_P1;PMS_P2;Temp;Humidity;BMP_temperature;BMP_pressure;BME280_temperature;BME280_humidity;BME280_pressure;Samples;Min_cycle;Max_cycle;Signal;HPM_P1;HPM_P2
2023/06/05 00:01:18;;;;;;;2.93;1.87;;;23.30;44.90;;;;;;6184886;23;20587;-70
2023/06/05 00:03:44;;;;;;;2.57;1.77;;;23.30;44.90;;;;;;6158444;23;20682;-69
2023/06/05 00:06:10;;;;;;;2.37;1.77;;;23.30;44.70;;;;;;6158671;23;20148;-69
2023/06/05 00:08:36;;;;;;;2.27;1.97;;;23.30;44.80;;;;;;6184487;23;20372;-68
2023/06/05 00:11:01;;;;;;;1.40;1.30;;;23.30;44.80;;;;;;6185119;23;20212;-68
2023/06/05 00:13:27;;;;;;;2.43;1.60;;;23.30;44.80;;;;;;6184651;23;20147;-68
2023/06/05 00:15:53;;;;;;;2.90;2.10;;;23.30;44.70;;;;;;6184794;23;20151;-70
2023/06/05 00:18:19;;;;;;;2.07;1.57;;;23.30;44.70;;;;;;6184681;23;20536;-68
2023/06/05 00:20:44;;;;;;;2.13;1.57;;;23.30;44.70;;;;;;6184897;23;20148;-68
2023/06/05 00:23:13;;;;;;;2.13;1.87;;;23.30;44.60;;;;;;6184327;23;20210;-69
2023/06/05 00:25:38;;;;;;;2.27;1.77;;;23.30;44.60;;;;;;6183803;23;20203;-68
2023/06/05 00:28:04;;;;;;;2.50;1.83;;;23.30;44.60;;;;;;6184723;23;20387;-68
2023/06/05 00:30:29;;;;;;;2.60;1.80;;;23.30;44.50;;;;;;6158135;23;20236;-68
2023/06/05 00:32:56;;;;;;;1.63;1.40;;;23.30;44.60;;;;;;6184615;23;20484;-69
2023/06/05 00:35:22;;;;;;;2.03;1.63;;;23.20;44.40;;;;;;6184775;23;20172;-69
2023/06/05 00:37:47;;;;;;;2.90;2.23;;;23.30;44.50;;;;;;6184571;23;20829;-68
2023/06/05 00:40:13;;;;;;;2.63;1.70;;;23.20;44.50;;;;;;6184520;23;20596;-69
2023/06/05 00:42:39;;;;;;;1.63;1.53;;;23.20;44.40;;;;;;6184490;23;20150;-70
2023/06/05 00:45:05;;;;;;;1.80;1.60;;;23.20;44.50;;;;;;6183956;23;20427;-69
2023/06/05 00:47:31;;;;;;;1.83;1.67;;;23.20;44.30;;;;;;6184482;23;20154;-70
2023/06/05 00:49:57;;;;;;;3.67;1.93;;;23.20;44.30;;;;;;6184280;23;20387;-68
2023/06/05 00:52:23;;;;;;;1.93;1.53;;;23.20;44.40;;;;;;6184652;23;20375;-70
2023/06/05 00:54:49;;;;;;;1.30;1.10;;;23.20;44.30;;;;;;6184316;23;20402;-69
2023/06/05 00:57:15;;;;;;;1.73;1.40;;;23.20;44.30;;;;;;6184213;23;20881;-68
2023/06/05 00:59:44;;;;;;;2.27;1.90;;;23.20;44.30;;;;;;6184311;23;20382;-68
2023/06/05 01:02:12;;;;;;;2.17;1.90;;;23.20;44.20;;;;;;6184654;23;20246;-69
2023/06/05 01:04:40;;;;;;;3.20;2.17;;;23.20;44.10;;;;;;6184077;23;20433;-69
2023/06/05 01:07:07;;;;;;;2.00;1.80;;;23.20;44.20;;;;;;6184307;23;20367;-68
2023/06/05 01:09:33;;;;;;;2.33;1.90;;;23.20;44.30;;;;;;6184307;23;20376;-70
2023/06/05 01:12:20;;;;;;;2.90;1.80;;;23.20;44.20;;;;;;6184210;23;20466;-69
2023/06/05 01:14:49;;;;;;;2.67;2.27;;;23.20;44.10;;;;;;6184463;23;20187;-70
2023/06/05 01:17:18;;;;;;;2.00;1.77;;;23.20;44.00;;;;;;6184249;23;20371;-69
2023/06/05 01:19:45;;;;;;;1.90;1.60;;;23.20;44.10;;;;;;6184061;23;20437;-71
2023/06/05 01:22:12;;;;;;;1.73;1.60;;;23.20;44.60;;;;;;6184277;23;20382;-68
2023/06/05 01:24:40;;;;;;;2.60;1.90;;;23.20;44.00;;;;;;6184289;23;20430;-68
2023/06/05 01:27:16;;;;;;;2.17;1.97;;;23.20;44.00;;;;;;6184138;23;20367;-68
2023/06/05 01:29:52;;;;;;;2.77;1.67;;;23.20;44.00;;;;;;6184472;23;20370;-69
2023/06/05 01:32:46;;;;;;;2.17;1.50;;;23.20;43.90;;;;;;6184472;23;20366;-69
2023/06/05 01:35:16;;;;;;;1.83;1.47;;;23.20;43.90;;;;;;6184083;23;20469;-68
2023/06/05 01:37:46;;;;;;;2.43;1.70;;;23.10;43.90;;;;;;6184457;23;20363;-69
2023/06/05 01:40:14;;;;;;;2.03;1.73;;;23.10;44.00;;;;;;6183996;23;20394;-69
2023/06/05 01:42:42;;;;;;;2.13;1.53;;;23.20;44.00;;;;;;6184022;23;20506;-68
2023/06/05 01:45:09;;;;;;;1.83;1.47;;;23.10;43.70;;;;;;6183871;23;20561;-69
2023/06/05 01:47:38;;;;;;;2.17;1.80;;;23.10;43.70;;;;;;6184130;23;20425;-68
2023/06/05 01:50:05;;;;;;;1.93;1.63;;;23.10;43.70;;;;;;6184047;23;20381;-70
2023/06/05 01:52:33;;;;;;;2.07;1.80;;;23.10;43.70;;;;;;6184360;23;20403;-68
2023/06/05 01:54:59;;;;;;;2.80;1.70;;;23.10;43.50;;;;;;6184381;23;20398;-67
2023/06/05 01:57:27;;;;;;;2.27;1.63;;;23.10;43.60;;;;;;6186065;23;20398;-68
2023/06/05 01:59:53;;;;;;;2.37;1.60;;;23.10;43.40;;;;;;6186007;23;20881;-68
2023/06/05 02:02:21;;;;;;;1.83;1.67;;;23.10;43.40;;;;;;6186057;23;20726;-69
2023/06/05 02:04:47;;;;;;;2.03;1.60;;;23.10;43.40;;;;;;6186141;23;20436;-68
2023/06/05 02:07:16;;;;;;;2.67;1.70;;;23.10;43.60;;;;;;6185956;23;20371;-69
2023/06/05 02:09:42;;;;;;;3.43;2.23;;;23.10;43.60;;;;;;6185950;23;20371;-69
2023/06/05 02:12:08;;;;;;;3.10;2.07;;;23.10;43.60;;;;;;6185974;23;20405;-69
2023/06/05 02:14:37;;;;;;;2.27;1.73;;;23.10;43.50;;;;;;6186039;23;20398;-68
2023/06/05 02:17:06;;;;;;;2.10;1.80;;;23.10;43.30;;;;;;6186565;23;20162;-68
2023/06/05 02:19:33;;;;;;;2.47;1.70;;;23.10;43.20;;;;;;6159463;23;20378;-69
2023/06/05 02:21:58;;;;;;;1.83;1.40;;;23.10;43.30;;;;;;6185872;23;20374;-69
2023/06/05 02:24:25;;;;;;;4.40;1.93;;;23.10;43.30;;;;;;6185956;23;20771;-69
2023/06/05 02:26:51;;;;;;;2.50;1.87;;;23.10;43.20;;;;;;6185802;23;20195;-70
2023/06/05 02:29:16;;;;;;;2.60;2.17;;;23.10;43.10;;;;;;6185835;23;20367;-67
2023/06/05 02:31:43;;;;;;;2.30;1.60;;;23.10;43.00;;;;;;6185622;23;20174;-69
2023/06/05 02:34:08;;;;;;;1.90;1.70;;;23.10;43.10;;;;;;6185562;23;20179;-68
2023/06/05 02:36:35;;;;;;;1.50;1.40;;;23.10;43.30;;;;;;6185738;23;20390;-68
2023/06/05 02:39:01;;;;;;;2.13;1.60;;;23.10;43.40;;;;;;6185660;23;20175;-69
2023/06/05 02:41:27;;;;;;;2.97;1.80;;;23.10;43.40;;;;;;6185678;23;20386;-69
2023/06/05 02:43:56;;;;;;;2.30;2.00;;;23.10;43.30;;;;;;6185508;23;20426;-67
2023/06/05 02:46:24;;;;;;;2.47;1.77;;;23.10;43.30;;;;;;6185590;23;20421;-69
2023/06/05 02:48:50;;;;;;;1.57;1.43;;;23.10;43.10;;;;;;6185668;23;20721;-68
2023/06/05 02:51:16;;;;;;;2.80;1.83;;;23.00;43.00;;;;;;6185532;23;20370;-66
2023/06/05 02:53:42;;;;;;;2.17;1.77;;;23.10;43.00;;;;;;6185430;23;20379;-68
2023/06/05 02:56:07;;;;;;;1.93;1.73;;;23.10;42.90;;;;;;6185450;23;20199;-67
2023/06/05 02:58:37;;;;;;;2.10;1.77;;;23.10;42.90;;;;;;6159109;23;20261;-68
2023/06/05 03:01:02;;;;;;;1.70;1.60;;;23.10;42.80;;;;;;6185606;23;20526;-69
2023/06/05 03:03:32;;;;;;;2.43;1.87;;;23.10;42.90;;;;;;6185303;23;20418;-72
2023/06/05 03:06:04;;;;;;;2.00;1.57;;;23.10;43.40;;;;;;6158973;23;20222;-69
2023/06/05 03:08:33;;;;;;;2.67;2.00;;;23.10;43.30;;;;;;6185333;23;20426;-69
2023/06/05 03:11:00;;;;;;;1.87;1.40;;;23.10;43.10;;;;;;6185659;23;20753;-69
2023/06/05 03:13:26;;;;;;;1.90;1.70;;;23.10;43.00;;;;;;6185296;23;20379;-68
2023/06/05 03:15:53;;;;;;;2.20;1.47;;;23.10;42.90;;;;;;6185397;23;20450;-68
2023/06/05 03:18:21;;;;;;;1.80;1.60;;;23.10;42.80;;;;;;6185346;23;20151;-69
2023/06/05 03:20:50;;;;;;;4.13;2.50;;;23.10;42.70;;;;;;6185319;23;20379;-68
2023/06/05 03:23:16;;;;;;;2.10;1.90;;;23.10;42.70;;;;;;6185104;23;20437;-69
2023/06/05 03:25:42;;;;;;;2.97;2.00;;;23.10;42.60;;;;;;6185110;23;20441;-69
2023/06/05 03:28:07;;;;;;;2.53;1.73;;;23.10;42.50;;;;;;6185191;23;20379;-68
2023/06/05 03:30:33;;;;;;;2.50;1.93;;;23.10;42.50;;;;;;6185201;23;20151;-68
2023/06/05 03:32:58;;;;;;;3.67;1.70;;;23.10;42.60;;;;;;6158750;23;20159;-69
2023/06/05 03:35:24;;;;;;;2.40;1.57;;;23.10;42.50;;;;;;6185398;23;20249;-69
2023/06/05 03:37:50;;;;;;;2.37;2.13;;;23.10;42.50;;;;;;6185114;23;20174;-69
2023/06/05 03:40:15;;;;;;;1.70;1.50;;;23.10;42.40;;;;;;6185073;23;20436;-69
2023/06/05 03:42:41;;;;;;;1.63;1.50;;;23.00;42.30;;;;;;6185086;23;20144;-68
2023/06/05 03:45:08;;;;;;;2.33;1.60;;;23.00;42.30;;;;;;6185156;23;20191;-69
2023/06/05 03:47:34;;;;;;;2.83;1.57;;;23.00;42.30;;;;;;6185029;23;20493;-68
2023/06/05 03:50:00;;;;;;;3.27;1.90;;;23.00;42.30;;;;;;6185049;23;20382;-68
2023/06/05 03:52:26;;;;;;;2.97;1.97;;;23.00;42.30;;;;;;6184917;23;20158;-67
2023/06/05 03:54:54;;;;;;;2.27;1.50;;;23.00;42.20;;;;;;6184919;23;20489;-68
2023/06/05 03:57:20;;;;;;;3.37;1.80;;;23.00;42.20;;;;;;6184870;23;20171;-67
2023/06/05 03:59:49;;;;;;;2.30;1.70;;;23.00;42.40;;;;;;6184906;23;20437;-69
2023/06/05 04:02:15;;;;;;;2.70;2.17;;;23.00;42.40;;;;;;6184864;23;20223;-69
2023/06/05 04:04:40;;;;;;;2.77;1.93;;;23.00;42.40;;;;;;6158238;23;20473;-68
2023/06/05 04:07:06;;;;;;;1.73;1.57;;;23.00;42.40;;;;;;6184983;23;20202;-69
2023/06/05 04:09:32;;;;;;;2.13;1.67;;;23.00;42.50;;;;;;6185185;23;20189;-68
2023/06/05 04:11:58;;;;;;;1.63;1.53;;;23.10;42.60;;;;;;6184853;23;20216;-68
2023/06/05 04:14:24;;;;;;;2.80;2.10;;;23.00;42.60;;;;;;6184672;23;20171;-69
2023/06/05 04:16:50;;;;;;;2.00;1.67;;;23.00;42.60;;;;;;6184803;23;20912;-68
2023/06/05 04:19:15;;;;;;;2.50;1.90;;;23.10;42.70;;;;;;6184539;23;20202;-67
2023/06/05 04:21:41;;;;;;;3.63;2.07;;;23.10;42.80;;;;;;6184688;23;20488;-68
2023/06/05 04:24:09;;;;;;;2.10;1.90;;;23.10;42.80;;;;;;6184456;23;20280;-68
2023/06/05 04:26:41;;;;;;;3.50;2.00;;;23.10;42.90;;;;;;6184631;23;20148;-69
2023/06/05 04:29:13;;;;;;;1.90;1.60;;;23.10;43.00;;;;;;6184563;23;20413;-68
2023/06/05 04:31:42;;;;;;;1.80;1.70;;;23.10;43.20;;;;;;6184639;23;20359;-68
2023/06/05 04:34:08;;;;;;;2.40;1.97;;;23.10;43.30;;;;;;6184806;23;20489;-68
2023/06/05 04:36:36;;;;;;;3.17;1.80;;;23.10;43.30;;;;;;6184573;23;20375;-67
2023/06/05 04:39:03;;;;;;;3.07;2.30;;;23.10;43.30;;;;;;6184506;23;20383;-68
2023/06/05 04:41:30;;;;;;;2.30;1.70;;;23.10;43.40;;;;;;6184539;23;20834;-68
2023/06/05 04:43:57;;;;;;;2.63;1.67;;;23.10;43.40;;;;;;6184405;23;20429;-68
2023/06/05 04:46:23;;;;;;;2.80;2.13;;;23.10;43.40;;;;;;6158323;23;20893;-68
2023/06/05 04:48:50;;;;;;;3.60;2.00;;;23.10;43.40;;;;;;6184464;23;20745;-68
2023/06/05 04:51:15;;;;;;;2.27;1.80;;;23.10;43.40;;;;;;6184711;23;20718;-68
2023/06/05 04:53:41;;;;;;;3.63;1.60;;;23.10;43.40;;;;;;6184356;23;20413;-69
2023/06/05 04:56:07;;;;;;;2.67;2.47;;;23.10;43.40;;;;;;6184405;23;20179;-68
2023/06/05 04:58:33;;;;;;;2.03;1.83;;;23.20;43.50;;;;;;6184350;23;20866;-68
2023/06/05 05:01:05;;;;;;;2.03;1.80;;;23.20;43.50;;;;;;6184356;23;20386;-69
2023/06/05 05:03:31;;;;;;;1.90;1.70;;;23.20;43.50;;;;;;6184444;23;20144;-68
2023/06/05 05:05:57;;;;;;;1.83;1.40;;;23.20;43.50;;;;;;6184215;23;20854;-69
2023/06/05 05:08:23;;;;;;;2.10;1.73;;;23.20;43.50;;;;;;6184631;23;20454;-67
2023/06/05 05:10:48;;;;;;;2.50;1.93;;;23.20;43.60;;;;;;6184690;23;20140;-68
2023/06/05 05:13:14;;;;;;;1.70;1.50;;;23.20;43.60;;;;;;6184251;23;20156;-68
2023/06/05 05:15:39;;;;;;;2.33;1.80;;;23.20;43.60;;;;;;6184139;23;20254;-69
2023/06/05 05:18:05;;;;;;;1.87;1.70;;;23.20;43.60;;;;;;6184516;23;20151;-68
2023/06/05 05:20:32;;;;;;;2.73;2.13;;;23.20;43.50;;;;;;6184202;23;20163;-69
2023/06/05 05:23:00;;;;;;;2.53;2.10;;;23.20;43.60;;;;;;6184143;23;20148;-69
2023/06/05 05:25:26;;;;;;;2.20;2.00;;;23.20;43.50;;;;;;6157590;23;20466;-69
2023/06/05 05:27:51;;;;;;;2.70;2.03;;;23.20;43.50;;;;;;6184137;23;20388;-68
2023/06/05 05:30:17;;;;;;;3.10;2.40;;;23.20;43.50;;;;;;6184365;23;20739;-67
2023/06/05 05:32:43;;;;;;;3.13;2.07;;;23.20;43.60;;;;;;6184058;23;20144;-69
2023/06/05 05:35:08;;;;;;;2.17;1.80;;;23.20;43.60;;;;;;6132863;23;20234;-69
2023/06/05 05:37:34;;;;;;;2.87;2.37;;;23.20;43.70;;;;;;6184144;23;20161;-69
2023/06/05 05:40:00;;;;;;;3.17;2.50;;;23.20;43.60;;;;;;6184323;23;20160;-70
2023/06/05 05:42:25;;;;;;;3.43;2.10;;;23.20;43.70;;;;;;6157739;23;20164;-68
2023/06/05 05:44:51;;;;;;;2.40;1.80;;;23.20;43.70;;;;;;6183872;23;20195;-68
2023/06/05 05:47:16;;;;;;;3.73;1.80;;;23.20;43.70;;;;;;6184076;23;20183;-68
2023/06/05 05:49:42;;;;;;;2.47;2.27;;;23.20;43.70;;;;;;6184035;23;20154;-69
2023/06/05 05:52:08;;;;;;;2.70;2.10;;;23.20;43.70;;;;;;6184038;23;20158;-69
2023/06/05 05:54:34;;;;;;;3.33;1.87;;;23.20;43.70;;;;;;6183867;23;20175;-67
2023/06/05 05:57:00;;;;;;;3.10;2.20;;;23.20;43.70;;;;;;6183986;23;20466;-68
2023/06/05 05:59:25;;;;;;;2.13;1.93;;;23.20;43.60;;;;;;6183902;23;20147;-68
2023/06/05 06:01:52;;;;;;;2.33;1.80;;;23.20;43.70;;;;;;6183986;23;20379;-67
2023/06/05 06:04:18;;;;;;;2.53;1.80;;;23.30;43.70;;;;;;6157746;23;20187;-68
2023/06/05 06:06:47;;;;;;;1.60;1.50;;;23.20;43.60;;;;;;6184225;23;20395;-70
2023/06/05 06:09:13;;;;;;;3.63;2.00;;;23.30;43.70;;;;;;6157608;23;20383;-68
2023/06/05 06:11:39;;;;;;;2.97;1.90;;;23.30;43.80;;;;;;6183961;23;20417;-68
2023/06/05 06:14:05;;;;;;;4.37;2.20;;;23.30;43.80;;;;;;6183744;23;20403;-67
2023/06/05 06:16:31;;;;;;;2.40;1.70;;;23.30;43.90;;;;;;6183983;23;20151;-69
2023/06/05 06:18:57;;;;;;;2.57;2.10;;;23.30;44.00;;;;;;6183847;23;20155;-69
2023/06/05 06:21:22;;;;;;;2.17;1.97;;;23.30;44.10;;;;;;6183903;23;20714;-69
2023/06/05 06:23:48;;;;;;;3.00;2.00;;;23.30;44.10;;;;;;6183716;23;20191;-68
2023/06/05 06:26:14;;;;;;;3.17;2.23;;;23.30;44.20;;;;;;6183784;23;20160;-69
2023/06/05 06:28:40;;;;;;;2.97;2.10;;;23.30;44.20;;;;;;6183876;23;20661;-67
2023/06/05 06:31:06;;;;;;;4.40;2.53;;;23.30;44.20;;;;;;6183921;23;20147;-69
2023/06/05 06:33:32;;;;;;;2.53;1.93;;;23.30;44.20;;;;;;6183746;23;20494;-68
2023/06/05 06:35:58;;;;;;;2.60;2.40;;;23.30;44.20;;;;;;6184158;23;20144;-68
2023/06/05 06:38:29;;;;;;;2.83;2.00;;;23.30;44.20;;;;;;6184097;23;20450;-69
2023/06/05 06:40:58;;;;;;;2.37;1.70;;;23.30;44.20;;;;;;6184084;23;20368;-69
2023/06/05 06:43:25;;;;;;;1.90;1.60;;;23.30;44.20;;;;;;6185174;23;20454;-69
2023/06/05 06:45:52;;;;;;;2.20;2.00;;;23.30;44.30;;;;;;6185644;23;20406;-67
2023/06/05 06:48:18;;;;;;;2.60;2.10;;;23.30;44.30;;;;;;6185885;23;20454;-67
2023/06/05 06:50:44;;;;;;;2.73;1.80;;;23.30;44.20;;;;;;6184424;23;20371;-69
2023/06/05 06:53:10;;;;;;;3.00;2.17;;;23.30;44.30;;;;;;6185533;23;20850;-69
2023/06/05 06:55:36;;;;;;;2.13;1.70;;;23.30;44.30;;;;;;6185445;23;20421;-69
2023/06/05 06:58:02;;;;;;;2.13;1.83;;;23.30;44.30;;;;;;6185547;23;20156;-69
2023/06/05 07:00:28;;;;;;;2.57;2.00;;;23.30;44.20;;;;;;6185472;23;20375;-68
2023/06/05 07:02:53;;;;;;;3.53;2.30;;;23.30;44.20;;;;;;6185493;23;20776;-69
2023/06/05 07:05:20;;;;;;;2.07;1.70;;;23.30;44.30;;;;;;6158815;23;20218;-68
2023/06/05 07:07:45;;;;;;;2.33;1.80;;;23.30;44.30;;;;;;6185288;23;20159;-68
2023/06/05 07:10:11;;;;;;;2.00;1.80;;;23.40;44.30;;;;;;6185502;23;20367;-69
2023/06/05 07:12:37;;;;;;;2.70;2.00;;;23.40;44.30;;;;;;6185723;23;20302;-68
2023/06/05 07:15:03;;;;;;;2.77;2.13;;;23.40;44.30;;;;;;6185601;23;20602;-70
2023/06/05 07:17:30;;;;;;;2.97;1.93;;;23.40;44.30;;;;;;6185206;23;20418;-69
2023/06/05 07:19:57;;;;;;;4.13;2.33;;;23.40;44.30;;;;;;6185650;23;20772;-68
2023/06/05 07:22:24;;;;;;;2.50;1.90;;;23.40;44.30;;;;;;6185261;23;20379;-69
2023/06/05 07:24:50;;;;;;;3.13;2.37;;;23.40;44.30;;;;;;6185385;23;20431;-67
2023/06/05 07:27:16;;;;;;;1.90;1.53;;;23.40;44.40;;;;;;6158848;23;20729;-68
2023/06/05 07:29:41;;;;;;;1.73;1.50;;;23.40;44.40;;;;;;6185188;23;20151;-68
2023/06/05 07:32:07;;;;;;;4.07;1.70;;;23.40;44.40;;;;;;6185131;23;20953;-67
2023/06/05 07:34:35;;;;;;;2.50;1.90;;;23.40;44.40;;;;;;6185049;23;20187;-69
2023/06/05 07:37:01;;;;;;;2.57;1.87;;;23.40;44.40;;;;;;6185227;23;20611;-68
2023/06/05 07:39:28;;;;;;;2.73;1.93;;;23.40;44.40;;;;;;6185206;23;20443;-69
2023/06/05 07:41:53;;;;;;;2.53;1.93;;;23.40;44.40;;;;;;6185126;23;20434;-70
2023/06/05 07:44:23;;;;;;;2.33;2.03;;;23.40;44.40;;;;;;6158435;23;20438;-69
2023/06/05 07:46:50;;;;;;;2.80;1.93;;;23.40;44.40;;;;;;6158453;23;20183;-67
2023/06/05 07:49:16;;;;;;;2.10;1.90;;;23.40;44.40;;;;;;6184904;23;20380;-69
2023/06/05 07:51:43;;;;;;;2.97;1.77;;;23.40;44.40;;;;;;6185022;23;20375;-68
2023/06/05 07:54:12;;;;;;;3.67;2.43;;;23.40;44.40;;;;;;6184777;23;20399;-67
2023/06/05 07:56:39;;;;;;;2.60;1.87;;;23.40;45.00;;;;;;6184860;23;20449;-69
2023/06/05 07:59:05;;;;;;;2.50;2.00;;;23.40;44.50;;;;;;6185220;23;20381;-68
2023/06/05 08:01:36;;;;;;;3.33;2.20;;;23.40;44.50;;;;;;6185028;23;20426;-67
2023/06/05 08:04:10;;;;;;;2.80;1.83;;;23.40;44.50;;;;;;6185038;23;20454;-68
2023/06/05 08:06:37;;;;;;;2.20;1.70;;;23.40;44.50;;;;;;6185296;23;20363;-69
2023/06/05 08:09:09;;;;;;;2.00;1.80;;;23.40;44.50;;;;;;6184812;23;20454;-68
2023/06/05 08:11:37;;;;;;;2.40;1.70;;;23.40;44.50;;;;;;6185139;23;20367;-68
2023/06/05 08:14:05;;;;;;;4.47;2.20;;;23.40;44.50;;;;;;6184573;23;20406;-69
2023/06/05 08:16:31;;;;;;;2.60;2.10;;;23.40;44.60;;;;;;6184721;23;20379;-69
2023/06/05 08:18:57;;;;;;;2.30;1.80;;;23.40;44.50;;;;;;6184752;23;20385;-68
2023/06/05 08:21:23;;;;;;;2.10;1.87;;;23.40;44.60;;;;;;6184841;23;20782;-68
2023/06/05 08:23:48;;;;;;;6.80;2.43;;;23.40;44.60;;;;;;6184455;23;20191;-69
2023/06/05 08:26:14;;;;;;;2.10;1.60;;;23.40;44.60;;;;;;6184645;23;20150;-68
2023/06/05 08:28:41;;;;;;;2.93;1.83;;;23.40;44.60;;;;;;6184971;23;20144;-68
2023/06/05 08:31:08;;;;;;;2.60;1.80;;;23.40;44.60;;;;;;6184604;23;20148;-69
2023/06/05 08:33:34;;;;;;;4.33;1.77;;;23.40;44.60;;;;;;6158000;23;20390;-68
2023/06/05 08:36:01;;;;;;;2.30;1.90;;;23.40;44.60;;;;;;6184574;23;20847;-67
2023/06/05 08:38:26;;;;;;;2.20;1.50;;;23.40;44.60;;;;;;6184555;23;20410;-67
2023/06/05 08:40:59;;;;;;;1.90;1.60;;;23.40;44.60;;;;;;6184679;23;20374;-70
2023/06/05 08:43:25;;;;;;;1.93;1.73;;;23.50;44.70;;;;;;6158041;23;20231;-69
2023/06/05 08:45:55;;;;;;;3.30;2.00;;;23.40;44.70;;;;;;6184442;23;20788;-68
2023/06/05 08:48:22;;;;;;;2.20;2.00;;;23.40;44.70;;;;;;6184554;23;20232;-69
2023/06/05 08:50:51;;;;;;;2.27;2.00;;;23.50;44.80;;;;;;6184528;23;20695;-68
2023/06/05 08:53:20;;;;;;;2.40;2.00;;;23.50;44.80;;;;;;6184728;23;20387;-68
2023/06/05 08:55:50;;;;;;;2.63;2.00;;;23.50;44.80;;;;;;6184171;23;20506;-68
2023/06/05 08:58:16;;;;;;;2.33;1.80;;;23.50;44.80;;;;;;6184541;23;20462;-68
2023/06/05 09:00:42;;;;;;;2.90;2.20;;;23.50;44.80;;;;;;6184324;23;20394;-69
2023/06/05 09:03:15;;;;;;;2.27;1.83;;;23.40;44.80;;;;;;6184701;23;20393;-67
2023/06/05 09:05:40;;;;;;;2.17;1.80;;;23.50;44.90;;;;;;6183955;23;20175;-67
2023/06/05 09:08:06;;;;;;;2.17;1.97;;;23.50;44.90;;;;;;6184311;23;20772;-69
2023/06/05 09:10:32;;;;;;;2.80;2.30;;;23.50;44.90;;;;;;6184338;23;20152;-68
2023/06/05 09:13:03;;;;;;;1.90;1.70;;;23.50;44.90;;;;;;6184575;23;20700;-67
2023/06/05 09:15:32;;;;;;;2.27;2.07;;;23.50;44.90;;;;;;6157840;23;20175;-69
2023/06/05 09:18:11;;;;;;;3.67;2.00;;;23.50;44.90;;;;;;6184130;23;20402;-68
2023/06/05 09:20:39;;;;;;;2.17;1.80;;;23.50;44.90;;;;;;6184179;23;20778;-68
2023/06/05 09:23:24;;;;;;;2.37;2.17;;;23.50;44.90;;;;;;6184153;23;20791;-70
2023/06/05 09:25:50;;;;;;;2.00;1.80;;;23.50;45.00;;;;;;6183979;23;20419;-69
2023/06/05 09:28:17;;;;;;;2.80;1.70;;;23.50;45.00;;;;;;6184127;23;20371;-68
2023/06/05 09:30:58;;;;;;;2.40;1.60;;;23.50;45.00;;;;;;6184102;23;20712;-69
2023/06/05 09:33:25;;;;;;;2.40;2.00;;;23.50;45.00;;;;;;6184451;23;20716;-70
2023/06/05 09:36:08;;;;;;;2.23;2.00;;;23.50;45.00;;;;;;6184091;23;20735;-69
2023/06/05 09:38:34;;;;;;;2.23;1.83;;;23.50;45.00;;;;;;6184457;23;20711;-69
2023/06/05 09:41:11;;;;;;;2.40;1.90;;;23.50;45.00;;;;;;6157624;23;20402;-70
2023/06/05 09:43:38;;;;;;;3.90;2.03;;;23.50;45.00;;;;;;6183862;23;20371;-68
2023/06/05 09:46:12;;;;;;;1.97;1.77;;;23.50;45.10;;;;;;6184080;23;20697;-68
2023/06/05 09:48:38;;;;;;;2.50;1.93;;;23.50;45.10;;;;;;6184051;23;20363;-68
2023/06/05 09:51:12;;;;;;;1.90;1.70;;;23.50;45.10;;;;;;6184075;23;20377;-69
2023/06/05 09:53:45;;;;;;;2.73;1.90;;;23.50;45.10;;;;;;6184032;23;20698;-68
2023/06/05 09:56:16;;;;;;;3.13;1.73;;;23.50;45.10;;;;;;6184178;23;20410;-67
2023/06/05 09:58:51;;;;;;;2.10;1.80;;;23.50;45.10;;;;;;6184369;23;20732;-68
2023/06/05 10:01:22;;;;;;;2.00;1.80;;;23.50;45.10;;;;;;6183760;23;20358;-68
2023/06/05 10:03:57;;;;;;;1.70;1.60;;;23.50;45.10;;;;;;6183818;23;20773;-69
2023/06/05 10:06:28;;;;;;;2.80;1.67;;;23.50;45.10;;;;;;6184410;23;20374;-69
2023/06/05 10:08:55;;;;;;;2.73;2.50;;;23.50;45.10;;;;;;6184361;23;20450;-69
2023/06/05 10:11:22;;;;;;;3.00;2.07;;;23.50;45.20;;;;;;6184103;23;20394;-68
2023/06/05 10:13:51;;;;;;;2.10;1.90;;;23.50;45.80;;;;;;6183776;23;20477;-67
2023/06/05 10:16:20;;;;;;;3.07;2.10;;;23.50;45.20;;;;;;6183859;23;20421;-67
2023/06/05 10:18:46;;;;;;;2.20;2.00;;;23.50;45.20;;;;;;6185771;23;20371;-68
2023/06/05 10:21:15;;;;;;;1.93;1.70;;;23.50;45.20;;;;;;6184447;23;20374;-69
2023/06/05 10:23:44;;;;;;;2.30;2.10;;;23.50;45.20;;;;;;6185818;23;20402;-68
2023/06/05 10:26:27;;;;;;;2.87;2.20;;;23.50;45.20;;;;;;6185937;23;20686;-67
2023/06/05 10:29:20;;;;;;;2.53;1.80;;;23.50;45.20;;;;;;6185759;23;20355;-68
2023/06/05 10:31:52;;;;;;;3.23;2.60;;;23.50;45.20;;;;;;6185661;23;20452;-68
2023/06/05 10:34:56;;;;;;;2.50;2.27;;;23.50;45.30;;;;;;6185487;23;20391;-68
2023/06/05 10:37:58;;;;;;;3.60;2.47;;;23.50;45.30;;;;;;6185937;23;20374;-69
2023/06/05 10:40:25;;;;;;;3.60;2.20;;;23.50;45.30;;;;;;6185591;23;20359;-68
2023/06/05 10:42:50;;;;;;;2.40;2.03;;;23.50;45.30;;;;;;6185556;23;20378;-68
2023/06/05 10:45:32;;;;;;;2.50;2.30;;;23.50;45.40;;;;;;6185361;23;20407;-68
2023/06/05 10:47:58;;;;;;;3.53;2.70;;;23.50;45.30;;;;;;6185358;23;20147;-68
2023/06/05 10:50:26;;;;;;;3.10;2.80;;;23.50;45.40;;;;;;6185488;23;20371;-70
2023/06/05 10:52:53;;;;;;;3.57;2.90;;;23.50;45.40;;;;;;6185536;23;20157;-69
2023/06/05 10:55:20;;;;;;;3.10;2.60;;;23.50;45.40;;;;;;6185161;23;20390;-69
2023/06/05 10:58:06;;;;;;;3.30;2.70;;;23.50;45.40;;;;;;6185572;23;20711;-69
2023/06/05 11:00:32;;;;;;;3.83;2.40;;;23.60;45.40;;;;;;6185446;23;20447;-69
2023/06/05 11:02:59;;;;;;;4.10;3.27;;;23.60;45.40;;;;;;6185722;23;20454;-69
2023/06/05 11:05:26;;;;;;;3.07;2.80;;;23.50;45.40;;;;;;6185175;23;20765;-68
2023/06/05 11:08:14;;;;;;;2.73;2.53;;;23.60;46.10;;;;;;6185476;23;20760;-69
2023/06/05 11:11:03;;;;;;;3.47;2.53;;;23.60;45.50;;;;;;6185309;23;20374;-68
2023/06/05 11:13:58;;;;;;;3.13;2.83;;;23.60;45.50;;;;;;6185557;23;20764;-69
2023/06/05 11:16:31;;;;;;;3.00;2.70;;;23.60;45.50;;;;;;6185653;23;20375;-68
2023/06/05 11:19:22;;;;;;;3.53;2.90;;;23.50;45.40;;;;;;6185230;23;20433;-69
2023/06/05 11:22:08;;;;;;;3.40;3.03;;;23.60;45.50;;;;;;6150648;23;20383;-69
2023/06/05 11:24:36;;;;;;;3.50;3.20;;;23.60;45.50;;;;;;6185004;23;20763;-68
2023/06/05 11:27:03;;;;;;;3.13;2.83;;;23.50;45.50;;;;;;6185436;23;20375;-67
2023/06/05 11:29:29;;;;;;;3.07;2.77;;;23.60;45.60;;;;;;6184964;23;20853;-68
2023/06/05 11:31:55;;;;;;;3.40;3.10;;;23.60;45.60;;;;;;6185246;23;20826;-67
2023/06/05 11:34:21;;;;;;;6.43;2.70;;;23.60;45.60;;;;;;6184166;23;20394;-69
2023/06/05 11:36:47;;;;;;;5.03;3.27;;;23.60;45.70;;;;;;6184535;23;20434;-65
2023/06/05 11:39:13;;;;;;;5.20;3.10;;;23.60;45.60;;;;;;6185273;23;20376;-66
2023/06/05 11:41:47;;;;;;;3.33;2.93;;;23.60;45.60;;;;;;6158567;23;20485;-70
2023/06/05 11:44:14;;;;;;;3.40;3.00;;;23.60;45.60;;;;;;6184764;23;20419;-69
2023/06/05 11:46:41;;;;;;;3.57;3.27;;;23.60;45.60;;;;;;6184671;23;20434;-69
2023/06/05 11:49:23;;;;;;;3.17;2.87;;;23.60;45.60;;;;;;6158480;23;20413;-69
2023/06/05 11:51:48;;;;;;;3.97;3.03;;;23.60;45.60;;;;;;6184941;23;20434;-69
2023/06/05 11:54:33;;;;;;;3.87;3.47;;;23.60;45.60;;;;;;6158293;23;20457;-67
2023/06/05 11:57:10;;;;;;;3.07;2.77;;;23.60;45.60;;;;;;6184827;23;20163;-69
2023/06/05 11:59:37;;;;;;;3.20;2.83;;;23.60;45.70;;;;;;6184514;23;20421;-67
2023/06/05 12:02:03;;;;;;;2.67;2.47;;;23.60;45.70;;;;;;6184619;23;20455;-68
2023/06/05 12:04:33;;;;;;;4.17;3.57;;;23.60;45.70;;;;;;6158235;23;20454;-69
2023/06/05 12:07:01;;;;;;;5.20;2.90;;;23.60;45.70;;;;;;6184862;23;20375;-69
2023/06/05 12:09:27;;;;;;;3.40;3.10;;;23.60;45.70;;;;;;6184821;23;20451;-70
2023/06/05 12:12:05;;;;;;;3.50;3.20;;;23.60;45.70;;;;;;6184860;23;20453;-68
2023/06/05 12:14:32;;;;;;;3.93;3.63;;;23.60;45.70;;;;;;6184529;23;20179;-67
2023/06/05 12:16:58;;;;;;;3.50;3.20;;;23.60;45.70;;;;;;6184677;23;20371;-66
2023/06/05 12:19:24;;;;;;;5.57;3.00;;;23.60;45.70;;;;;;6184612;23;20419;-68
2023/06/05 12:21:52;;;;;;;3.90;2.90;;;23.60;45.70;;;;;;6184773;23;20159;-68
2023/06/05 12:24:27;;;;;;;4.03;2.97;;;23.60;45.80;;;;;;6158876;23;20242;-67
2023/06/05 12:27:04;;;;;;;3.43;3.00;;;23.60;45.80;;;;;;6184689;23;20382;-68
2023/06/05 12:29:41;;;;;;;3.53;3.20;;;23.60;45.80;;;;;;6184870;23;20371;-68
2023/06/05 12:32:25;;;;;;;3.33;3.00;;;23.60;45.80;;;;;;6184595;23;20355;-69
2023/06/05 12:34:53;;;;;;;3.30;2.93;;;23.60;45.80;;;;;;6184559;23;20405;-68
2023/06/05 12:37:34;;;;;;;3.70;3.27;;;23.60;45.80;;;;;;6184419;23;20390;-69
2023/06/05 12:40:05;;;;;;;4.07;3.00;;;23.60;45.80;;;;;;6184103;23;20872;-69
2023/06/05 12:42:35;;;;;;;6.13;3.73;;;23.60;45.90;;;;;;6184740;23;20371;-68
2023/06/05 12:45:01;;;;;;;4.80;3.40;;;23.60;45.90;;;;;;6184786;23;20418;-68
2023/06/05 12:47:27;;;;;;;3.43;3.10;;;23.60;45.90;;;;;;6184440;23;20371;-69
2023/06/05 12:49:52;;;;;;;9.70;3.70;;;23.60;45.90;;;;;;6184314;23;20378;-69
2023/06/05 12:52:18;;;;;;;4.00;3.23;;;23.60;46.00;;;;;;6158225;23;20166;-67
2023/06/05 12:54:44;;;;;;;3.60;3.30;;;23.60;45.90;;;;;;6184346;23;20257;-67